createdAt,value
2022-09-28T00:03:12.505Z,9.70
2022-09-28T00:08:14.204Z,9.70
2022-09-28T00:13:15.826Z,9.70
2022-09-28T00:18:17.554Z,9.70
2022-09-28T00:23:19.204Z,9.70
2022-09-28T00:28:20.896Z,9.70
2022-09-28T00:33:22.675Z,9.70
2022-09-28T00:38:28.850Z,9.70
2022-09-28T00:43:30.476Z,9.60
2022-09-28T00:48:39.448Z,9.60
2022-09-28T00:53:43.345Z,9.60
2022-09-28T00:58:49.964Z,9.60
2022-09-28T01:03:52.040Z,9.60
2022-09-28T01:08:58.295Z,9.50
2022-09-28T01:14:00.984Z,9.50
2022-09-28T01:19:17.427Z,9.50
2022-09-28T01:24:40.837Z,9.40
2022-09-28T01:30:19.235Z,9.40
2022-09-28T01:35:31.064Z,9.30
2022-09-28T01:40:34.248Z,9.30
2022-09-28T01:45:46.413Z,9.30
2022-09-28T01:50:53.544Z,9.20
2022-09-28T01:56:02.645Z,9.20
2022-09-28T02:01:11.611Z,9.20
2022-09-28T02:06:20.103Z,9.20
2022-09-28T02:11:22.821Z,9.20
2022-09-28T02:16:34.739Z,9.10
2022-09-28T02:22:00.631Z,9.10
2022-09-28T02:27:09.510Z,9.10
2022-09-28T02:32:11.398Z,9.10
2022-09-28T02:37:13.133Z,9.10
2022-09-28T02:42:27.425Z,9.10
2022-09-28T02:47:54.085Z,9.10
2022-09-28T02:53:14.088Z,9.20
2022-09-28T02:58:30.761Z,9.20
2022-09-28T03:03:46.515Z,9.10
2022-09-28T03:09:17.582Z,9.10
2022-09-28T03:14:20.072Z,9.10
2022-09-28T03:19:29.075Z,9.10
2022-09-28T03:24:30.796Z,9.10
2022-09-28T03:29:33.072Z,9.10
2022-09-28T03:34:35.601Z,9.10
2022-09-28T03:39:37.265Z,9.10
2022-09-28T03:44:38.948Z,9.10
2022-09-28T03:49:40.683Z,9.10
2022-09-28T03:54:46.963Z,9.10
2022-09-28T03:59:50.697Z,9.00
2022-09-28T04:04:52.432Z,9.10
2022-09-28T04:09:54.160Z,9.00
2022-09-28T04:14:55.793Z,9.00
2022-09-28T04:19:57.724Z,9.00
2022-09-28T04:24:59.386Z,9.00
2022-09-28T04:30:01.032Z,8.90
2022-09-28T04:35:02.761Z,8.90
2022-09-28T04:40:04.827Z,8.90
2022-09-28T04:45:07.156Z,8.80
2022-09-28T04:50:09.130Z,8.90
2022-09-28T04:55:14.394Z,8.80
2022-09-28T05:00:16.984Z,8.80
2022-09-28T05:05:18.672Z,8.80
2022-09-28T05:10:20.361Z,8.80
2022-09-28T05:15:22.024Z,8.80
2022-09-28T05:20:23.717Z,8.80
2022-09-28T05:25:25.669Z,8.80
2022-09-28T05:30:28.433Z,8.70
2022-09-28T05:35:30.350Z,8.70
2022-09-28T05:40:32.563Z,8.80
2022-09-28T05:45:34.306Z,8.70
2022-09-28T05:50:35.967Z,8.70
2022-09-28T05:55:38.190Z,8.70
2022-09-28T06:00:40.125Z,8.70
2022-09-28T06:05:42.202Z,8.80
2022-09-28T06:10:44.016Z,8.70
2022-09-28T06:15:46.373Z,8.80
2022-09-28T06:20:48.087Z,8.80
2022-09-28T06:25:49.789Z,8.90
2022-09-28T06:30:51.463Z,8.90
2022-09-28T06:35:53.265Z,8.90
2022-09-28T06:40:56.521Z,8.90
2022-09-28T06:45:58.284Z,8.90
2022-09-28T06:51:00.968Z,9.00
2022-09-28T06:56:02.855Z,9.00
2022-09-28T07:01:05.722Z,9.00
2022-09-28T07:06:11.320Z,9.00
2022-09-28T07:11:13.876Z,9.00
2022-09-28T07:16:15.502Z,9.00
2022-09-28T07:21:27.445Z,9.00
2022-09-28T07:26:33.138Z,9.10
2022-09-28T07:31:35.108Z,9.10
2022-09-28T07:36:36.742Z,9.20
2022-09-28T07:41:39.618Z,9.20
2022-09-28T07:46:43.264Z,9.20
2022-09-28T07:51:44.912Z,9.30
2022-09-28T07:56:46.557Z,9.40
2022-09-28T08:01:51.388Z,9.40
2022-09-28T08:06:53.180Z,9.50
2022-09-28T08:11:54.901Z,9.50
2022-09-28T08:16:56.531Z,9.60
2022-09-28T08:21:58.204Z,9.60
2022-09-28T08:27:00.486Z,9.60
2022-09-28T08:32:02.932Z,9.60
2022-09-28T08:37:05.854Z,9.70
2022-09-28T08:42:34.957Z,9.80
2022-09-28T08:48:35.364Z,9.90
2022-09-28T08:53:48.601Z,9.90
2022-09-28T08:58:57.098Z,10.10
2022-09-28T09:03:58.955Z,10.10
2022-09-28T09:09:24.728Z,10.10
2022-09-28T09:15:13.152Z,10.20
2022-09-28T09:20:33.272Z,10.40
2022-09-28T09:25:40.352Z,10.60
2022-09-28T09:31:00.462Z,10.70
2022-09-28T09:36:28.038Z,10.80
2022-09-28T09:41:57.942Z,10.90
2022-09-28T09:47:17.348Z,11.00
2022-09-28T09:52:29.381Z,11.00
2022-09-28T09:57:40.477Z,11.20
2022-09-28T10:02:44.935Z,11.30
2022-09-28T10:08:04.409Z,11.20
2022-09-28T10:13:06.075Z,11.30
2022-09-28T10:18:14.345Z,11.30
2022-09-28T10:23:27.045Z,11.40
2022-09-28T10:29:02.059Z,11.40
2022-09-28T10:34:04.963Z,11.50
2022-09-28T10:39:07.004Z,11.60
2022-09-28T10:44:18.628Z,11.70
2022-09-28T10:49:23.556Z,11.80
2022-09-28T10:54:26.441Z,11.70
2022-09-28T10:59:31.096Z,11.80
2022-09-28T11:04:41.375Z,11.80
2022-09-28T11:09:48.323Z,11.80
2022-09-28T11:14:57.397Z,11.80
2022-09-28T11:20:27.727Z,11.80
2022-09-28T11:25:31.245Z,11.90
2022-09-28T11:30:48.244Z,11.90
2022-09-28T11:36:14.802Z,11.90
2022-09-28T11:41:45.985Z,11.90
2022-09-28T11:46:53.510Z,12.00
2022-09-28T11:51:59.286Z,12.10
2022-09-28T11:57:04.078Z,12.20
2022-09-28T12:02:29.700Z,12.30
2022-09-28T12:07:40.901Z,12.30
2022-09-28T12:12:55.099Z,12.30
2022-09-28T12:18:03.762Z,12.30
2022-09-28T12:23:13.946Z,12.30
2022-09-28T12:28:24.905Z,12.30
2022-09-28T12:33:26.621Z,12.30
2022-09-28T12:39:21.697Z,12.30
2022-09-28T12:44:35.469Z,12.30
2022-09-28T12:55:16.692Z,12.40
2022-09-28T13:00:22.759Z,12.40
2022-09-28T13:05:24.429Z,12.40
2022-09-28T13:10:35.098Z,12.40
2022-09-28T13:15:57.403Z,12.40
2022-09-28T13:21:14.177Z,12.40
2022-09-28T13:26:29.823Z,12.40
2022-09-28T13:31:35.959Z,12.40
2022-09-28T13:36:43.463Z,12.40
2022-09-28T13:41:50.601Z,12.40
2022-09-28T13:47:03.949Z,12.30
2022-09-28T13:52:12.947Z,12.40
2022-09-28T13:57:48.604Z,12.40
2022-09-28T14:03:01.332Z,12.40
2022-09-28T14:08:08.874Z,12.40
2022-09-28T14:13:10.807Z,12.40
2022-09-28T14:18:32.272Z,12.40
2022-09-28T14:23:43.752Z,12.40
2022-09-28T14:28:57.864Z,12.40
2022-09-28T14:34:03.310Z,12.40
2022-09-28T14:39:23.479Z,12.50
2022-09-28T14:44:25.230Z,12.40
2022-09-28T14:49:35.995Z,12.50
2022-09-28T14:55:10.428Z,12.50
2022-09-28T15:00:20.653Z,12.50
2022-09-28T15:05:32.664Z,12.50
2022-09-28T15:10:41.964Z,12.50
2022-09-28T15:15:50.373Z,12.50
2022-09-28T15:20:52.538Z,12.60
2022-09-28T15:25:55.622Z,12.60
2022-09-28T15:31:02.322Z,12.60
2022-09-28T15:36:07.174Z,12.60
2022-09-28T15:41:10.228Z,12.60
2022-09-28T15:46:20.493Z,12.60
2022-09-28T15:51:23.887Z,12.70
2022-09-28T15:56:26.971Z,12.70
2022-09-28T16:01:36.566Z,12.60
2022-09-28T16:06:41.011Z,12.70
2022-09-28T16:11:42.816Z,12.70
2022-09-28T16:16:49.288Z,12.70
2022-09-28T16:21:59.367Z,12.70
2022-09-28T16:27:02.584Z,12.70
2022-09-28T16:32:25.328Z,12.60
2022-09-28T16:37:32.195Z,12.60
2022-09-28T16:42:34.041Z,12.50
2022-09-28T16:47:35.948Z,12.50
2022-09-28T16:52:59.837Z,12.30
2022-09-28T16:58:04.526Z,12.30
2022-09-28T17:03:17.584Z,12.10
2022-09-28T17:08:22.164Z,12.10
2022-09-28T17:13:31.289Z,12.00
2022-09-28T17:18:32.978Z,11.90
2022-09-28T17:23:34.728Z,11.80
2022-09-28T17:28:36.872Z,11.70
2022-09-28T17:33:38.581Z,11.70
2022-09-28T17:38:42.442Z,11.60
2022-09-28T17:43:44.530Z,11.50
2022-09-28T17:48:47.374Z,11.50
2022-09-28T17:53:49.285Z,11.40
2022-09-28T17:58:52.023Z,11.30
2022-09-28T18:03:53.825Z,11.30
2022-09-28T18:08:55.600Z,11.30
2022-09-28T18:13:57.276Z,11.30
2022-09-28T18:18:59.493Z,11.30
2022-09-28T18:24:01.458Z,11.20
2022-09-28T18:29:03.191Z,11.20
2022-09-28T18:34:05.744Z,11.20
2022-09-28T18:39:07.589Z,11.20
2022-09-28T18:44:09.861Z,11.20
2022-09-28T18:49:11.663Z,11.10
2022-09-28T18:54:13.865Z,11.10
2022-09-28T18:59:15.868Z,11.10
2022-09-28T19:04:19.920Z,11.10
2022-09-28T19:09:23.416Z,11.10
2022-09-28T19:14:25.319Z,11.10
2022-09-28T19:19:29.051Z,11.00
2022-09-28T19:24:30.963Z,11.10
2022-09-28T19:29:32.695Z,11.00
2022-09-28T19:34:34.399Z,10.80
2022-09-28T19:39:36.142Z,10.80
2022-09-28T19:44:39.250Z,10.70
2022-09-28T19:49:41.517Z,10.70
2022-09-28T19:54:57.459Z,10.70
2022-09-28T20:00:02.773Z,10.60
2022-09-28T20:05:05.424Z,10.60
2022-09-28T20:10:07.386Z,10.60
2022-09-28T20:15:10.545Z,10.50
2022-09-28T20:20:12.273Z,10.50
2022-09-28T20:25:14.164Z,10.50
2022-09-28T20:30:15.848Z,10.40
2022-09-28T20:35:30.452Z,10.40
2022-09-28T20:40:36.468Z,10.40
2022-09-28T20:45:38.292Z,10.30
2022-09-28T20:50:41.077Z,10.30
2022-09-28T20:55:42.731Z,10.30
2022-09-28T21:00:44.368Z,10.30
2022-09-28T21:05:46.396Z,10.30
2022-09-28T21:10:50.394Z,10.30
2022-09-28T21:15:52.598Z,10.30
2022-09-28T21:20:54.275Z,10.20
2022-09-28T21:26:10.979Z,10.20
2022-09-28T21:31:14.120Z,10.20
2022-09-28T21:36:15.802Z,10.20
2022-09-28T21:41:17.431Z,10.20
2022-09-28T21:46:19.295Z,10.20
2022-09-28T21:51:21.451Z,10.10
2022-09-28T21:56:23.568Z,10.10
2022-09-28T22:01:26.025Z,10.10
2022-09-28T22:06:30.580Z,10.10
2022-09-28T22:11:32.204Z,10.10
2022-09-28T22:16:34.137Z,10.10
2022-09-28T22:21:35.964Z,10.00
2022-09-28T22:26:38.285Z,9.90
2022-09-28T22:31:41.291Z,9.90
2022-09-28T22:36:43.052Z,9.80
2022-09-28T22:41:44.696Z,9.80
2022-09-28T22:46:46.715Z,9.70
2022-09-28T22:51:48.610Z,9.70
2022-09-28T22:56:50.436Z,9.70
2022-09-28T23:01:52.232Z,9.60
2022-09-28T23:06:53.949Z,9.60
2022-09-28T23:11:55.649Z,9.50
2022-09-28T23:16:57.241Z,9.50
2022-09-28T23:21:59.233Z,9.40
2022-09-28T23:27:00.880Z,9.40
2022-09-28T23:32:02.547Z,9.30
2022-09-28T23:37:04.225Z,9.20
2022-09-28T23:42:05.960Z,9.20
2022-09-28T23:47:07.665Z,9.10
2022-09-28T23:52:09.270Z,9.10
2022-09-28T23:57:11.001Z,9.00
